createdAt,value
2022-09-18T00:02:13.933Z,3.42
2022-09-18T00:04:42.721Z,6.28
2022-09-18T00:07:11.437Z,4.47
2022-09-18T00:09:40.295Z,5.00
2022-09-18T00:12:09.186Z,4.37
2022-09-18T00:14:38.136Z,4.10
2022-09-18T00:17:09.243Z,4.55
2022-09-18T00:19:38.127Z,4.03
2022-09-18T00:22:07.125Z,4.95
2022-09-18T00:24:35.763Z,7.87
2022-09-18T00:27:04.452Z,5.43
2022-09-18T00:29:33.227Z,6.10
2022-09-18T00:32:02.472Z,6.70
2022-09-18T00:34:32.709Z,7.63
2022-09-18T00:37:01.403Z,5.33
2022-09-18T00:39:30.060Z,6.28
2022-09-18T00:41:58.745Z,5.70
2022-09-18T00:44:42.905Z,9.15
2022-09-18T00:47:28.243Z,6.13
2022-09-18T00:50:08.187Z,7.67
2022-09-18T00:52:50.905Z,6.03
2022-09-18T00:55:25.397Z,5.55
2022-09-18T00:57:59.080Z,6.40
2022-09-18T01:00:28.079Z,6.55
2022-09-18T01:03:01.474Z,6.40
2022-09-18T01:05:48.887Z,5.25
2022-09-18T01:08:43.227Z,7.22
2022-09-18T01:11:29.329Z,5.35
2022-09-18T01:14:14.136Z,5.22
2022-09-18T01:16:54.640Z,5.10
2022-09-18T01:19:48.377Z,5.63
2022-09-18T01:22:33.107Z,9.18
2022-09-18T01:25:21.289Z,5.78
2022-09-18T01:28:17.884Z,5.20
2022-09-18T01:30:52.159Z,6.20
2022-09-18T01:33:32.634Z,7.45
2022-09-18T01:36:07.654Z,4.65
2022-09-18T01:38:42.969Z,5.57
2022-09-18T01:41:15.768Z,5.75
2022-09-18T01:43:49.769Z,4.47
2022-09-18T01:46:21.394Z,4.97
2022-09-18T01:48:59.253Z,4.55
2022-09-18T01:51:37.556Z,5.95
2022-09-18T01:54:14.265Z,4.53
2022-09-18T01:56:49.256Z,4.50
2022-09-18T01:59:30.626Z,5.30
2022-09-18T02:02:16.240Z,3.95
2022-09-18T02:04:48.751Z,4.45
2022-09-18T02:07:28.436Z,5.22
2022-09-18T02:09:58.964Z,5.47
2022-09-18T02:12:34.311Z,4.78
2022-09-18T02:15:13.049Z,5.15
2022-09-18T02:17:58.669Z,5.68
2022-09-18T02:20:39.801Z,5.65
2022-09-18T02:23:10.403Z,6.20
2022-09-18T02:25:46.797Z,5.53
2022-09-18T02:28:19.428Z,6.70
2022-09-18T02:30:49.981Z,5.40
2022-09-18T02:33:29.095Z,6.32
2022-09-18T02:36:40.897Z,6.00
2022-09-18T02:39:32.264Z,7.90
2022-09-18T02:42:17.472Z,8.07
2022-09-18T02:44:57.008Z,9.18
2022-09-18T02:47:48.438Z,10.23
2022-09-18T02:50:29.808Z,11.07
2022-09-18T02:53:07.201Z,8.80
2022-09-18T02:55:47.346Z,9.93
2022-09-18T02:58:21.940Z,10.02
2022-09-18T03:00:57.340Z,11.27
2022-09-18T03:03:33.920Z,12.30
2022-09-18T03:06:07.449Z,11.50
2022-09-18T03:08:38.192Z,9.65
2022-09-18T03:11:07.992Z,10.38
2022-09-18T03:13:36.886Z,9.13
2022-09-18T03:16:05.655Z,9.83
2022-09-18T03:18:35.795Z,8.85
2022-09-18T03:21:04.785Z,8.85
2022-09-18T03:23:34.605Z,9.05
2022-09-18T03:26:14.933Z,8.15
2022-09-18T03:28:44.332Z,11.07
2022-09-18T03:31:14.960Z,8.35
2022-09-18T03:33:45.188Z,10.18
2022-09-18T03:36:14.790Z,8.63
2022-09-18T03:38:44.353Z,9.77
2022-09-18T03:41:13.687Z,8.57
2022-09-18T03:43:43.973Z,8.20
2022-09-18T03:46:14.147Z,8.57
2022-09-18T03:48:44.340Z,8.48
2022-09-18T03:51:13.080Z,7.43
2022-09-18T03:53:41.900Z,9.80
2022-09-18T03:56:26.596Z,7.70
2022-09-18T03:59:13.775Z,5.60
2022-09-18T04:02:02.963Z,5.40
2022-09-18T04:04:33.936Z,7.30
2022-09-18T04:07:32.416Z,7.03
2022-09-18T04:10:23.990Z,4.90
2022-09-18T04:12:52.990Z,6.43
2022-09-18T04:15:28.165Z,14.45
2022-09-18T04:17:57.964Z,6.30
2022-09-18T04:20:31.796Z,6.57
2022-09-18T04:23:02.094Z,7.95
2022-09-18T04:25:31.149Z,10.60
2022-09-18T04:28:00.523Z,6.68
2022-09-18T04:30:30.023Z,6.57
2022-09-18T04:32:59.029Z,6.77
2022-09-18T04:35:29.792Z,6.03
2022-09-18T04:37:58.738Z,7.63
2022-09-18T04:40:29.851Z,6.25
2022-09-18T04:42:58.985Z,6.07
2022-09-18T04:45:28.822Z,4.13
2022-09-18T04:47:57.546Z,5.88
2022-09-18T04:50:28.839Z,3.78
2022-09-18T04:53:19.827Z,11.32
2022-09-18T04:55:49.894Z,4.22
2022-09-18T04:58:21.016Z,2.57
2022-09-18T05:00:54.959Z,3.67
2022-09-18T05:03:24.034Z,3.67
2022-09-18T05:05:56.293Z,3.33
2022-09-18T05:08:26.059Z,3.63
2022-09-18T05:10:54.769Z,4.47
2022-09-18T05:13:24.098Z,3.05
2022-09-18T05:16:02.186Z,3.30
2022-09-18T05:18:33.086Z,2.53
2022-09-18T05:21:07.026Z,3.25
2022-09-18T05:23:36.433Z,2.17
2022-09-18T05:26:05.713Z,3.45
2022-09-18T05:28:34.745Z,2.85
2022-09-18T05:31:04.626Z,3.08
2022-09-18T05:33:41.807Z,2.55
2022-09-18T05:36:12.242Z,3.17
2022-09-18T05:38:41.007Z,2.67
2022-09-18T05:41:11.257Z,3.35
2022-09-18T05:43:40.271Z,3.63
2022-09-18T05:46:11.925Z,4.55
2022-09-18T05:48:47.109Z,1.73
2022-09-18T05:51:17.593Z,4.32
2022-09-18T05:53:48.619Z,2.55
2022-09-18T05:56:22.966Z,2.88
2022-09-18T05:58:52.154Z,2.42
2022-09-18T06:01:20.882Z,3.00
2022-09-18T06:04:12.534Z,2.92
2022-09-18T06:06:57.182Z,2.08
2022-09-18T06:09:27.860Z,3.63
2022-09-18T06:11:56.959Z,2.25
2022-09-18T06:14:26.219Z,2.83
2022-09-18T06:16:55.692Z,3.38
2022-09-18T06:19:24.418Z,3.25
2022-09-18T06:21:55.657Z,3.65
2022-09-18T06:24:24.655Z,2.97
2022-09-18T06:27:07.312Z,5.40
2022-09-18T06:29:37.087Z,2.85
2022-09-18T06:32:12.439Z,2.38
2022-09-18T06:34:42.262Z,2.13
2022-09-18T06:37:15.869Z,2.90
2022-09-18T06:39:44.941Z,2.50
2022-09-18T06:42:33.470Z,2.05
2022-09-18T06:45:14.700Z,2.17
2022-09-18T06:47:43.646Z,1.83
2022-09-18T06:50:16.023Z,1.40
2022-09-18T06:52:48.060Z,3.53
2022-09-18T06:55:17.672Z,2.85
2022-09-18T06:57:56.003Z,2.92
2022-09-18T07:00:25.737Z,1.88
2022-09-18T07:03:01.084Z,1.60
2022-09-18T07:05:50.049Z,2.20
2022-09-18T07:08:47.003Z,2.30
2022-09-18T07:11:43.754Z,3.00
2022-09-18T07:14:16.099Z,1.63
2022-09-18T07:16:45.737Z,1.90
2022-09-18T07:19:15.348Z,1.90
2022-09-18T07:21:45.014Z,2.42
2022-09-18T07:24:18.271Z,2.38
2022-09-18T07:26:48.884Z,2.08
2022-09-18T07:29:24.666Z,1.85
2022-09-18T07:31:54.885Z,1.58
2022-09-18T07:34:24.343Z,1.43
2022-09-18T07:36:53.381Z,3.17
2022-09-18T07:39:26.285Z,1.95
2022-09-18T07:42:17.408Z,3.22
2022-09-18T07:44:52.635Z,2.70
2022-09-18T07:47:26.940Z,7.17
2022-09-18T07:49:55.984Z,2.25
2022-09-18T07:52:27.869Z,1.95
2022-09-18T07:55:00.232Z,2.05
2022-09-18T07:57:33.706Z,2.33
2022-09-18T08:00:19.665Z,1.93
2022-09-18T08:02:52.562Z,2.45
2022-09-18T08:05:43.489Z,2.33
2022-09-18T08:08:14.529Z,2.85
2022-09-18T08:11:06.019Z,2.30
2022-09-18T08:13:45.869Z,2.27
2022-09-18T08:16:36.701Z,2.42
2022-09-18T08:19:08.233Z,2.33
2022-09-18T08:21:49.736Z,2.00
2022-09-18T08:24:19.249Z,2.05
2022-09-18T08:26:50.133Z,1.50
2022-09-18T08:29:22.009Z,4.32
2022-09-18T08:31:55.496Z,1.80
2022-09-18T08:34:24.334Z,2.28
2022-09-18T08:36:53.285Z,1.55
2022-09-18T08:39:26.734Z,1.43
2022-09-18T08:42:17.488Z,1.77
2022-09-18T08:44:51.835Z,1.85
2022-09-18T08:47:26.868Z,3.38
2022-09-18T08:50:05.582Z,1.45
2022-09-18T08:52:45.835Z,1.33
2022-09-18T08:55:33.488Z,2.63
2022-09-18T08:58:19.827Z,1.65
2022-09-18T09:00:56.179Z,1.70
2022-09-18T09:03:53.234Z,1.83
2022-09-18T09:06:42.432Z,1.93
2022-09-18T09:09:40.231Z,1.25
2022-09-18T09:12:26.037Z,2.47
2022-09-18T09:15:22.060Z,4.18
2022-09-18T09:18:16.545Z,1.10
2022-09-18T09:20:54.873Z,3.60
2022-09-18T09:24:05.334Z,4.28
2022-09-18T09:26:59.814Z,2.47
2022-09-18T09:30:01.686Z,2.72
2022-09-18T09:33:13.530Z,3.53
2022-09-18T09:36:08.383Z,2.50
2022-09-18T09:39:07.414Z,2.63
2022-09-18T09:41:43.645Z,1.38
2022-09-18T09:44:30.420Z,2.80
2022-09-18T09:47:16.263Z,3.50
2022-09-18T09:50:01.894Z,1.50
2022-09-18T09:52:33.462Z,2.05
2022-09-18T09:55:28.460Z,2.10
2022-09-18T09:58:22.477Z,2.25
2022-09-18T10:01:04.374Z,1.70
2022-09-18T10:03:47.316Z,1.97
2022-09-18T10:06:37.051Z,2.72
2022-09-18T10:09:20.147Z,1.90
2022-09-18T10:12:00.257Z,1.95
2022-09-18T10:14:35.403Z,3.20
2022-09-18T10:17:06.565Z,4.53
2022-09-18T10:19:41.700Z,2.90
2022-09-18T10:22:19.337Z,4.22
2022-09-18T10:25:01.212Z,2.83
2022-09-18T10:27:30.007Z,3.95
2022-09-18T10:29:59.533Z,4.03
2022-09-18T10:32:43.497Z,2.38
2022-09-18T10:35:43.228Z,2.58
2022-09-18T10:38:37.582Z,2.08
2022-09-18T10:41:36.899Z,1.88
2022-09-18T10:44:25.718Z,2.47
2022-09-18T10:47:09.551Z,2.10
2022-09-18T10:49:50.849Z,1.80
2022-09-18T10:52:36.736Z,3.53
2022-09-18T10:55:21.000Z,3.47
2022-09-18T10:58:15.722Z,1.90
2022-09-18T11:00:57.614Z,2.25
2022-09-18T11:03:43.327Z,2.17
2022-09-18T11:06:23.948Z,2.17
2022-09-18T11:08:57.293Z,2.75
2022-09-18T11:11:36.180Z,1.53
2022-09-18T11:14:21.863Z,1.58
2022-09-18T11:17:05.494Z,1.67
2022-09-18T11:19:40.913Z,1.75
2022-09-18T11:22:36.610Z,2.25
2022-09-18T11:25:24.342Z,2.43
2022-09-18T11:28:02.730Z,2.35
2022-09-18T11:30:39.181Z,3.55
2022-09-18T11:33:27.491Z,1.80
2022-09-18T11:36:05.381Z,2.15
2022-09-18T11:38:41.314Z,1.33
2022-09-18T11:41:12.362Z,1.60
2022-09-18T11:44:01.077Z,1.85
2022-09-18T11:47:01.151Z,1.65
2022-09-18T11:49:37.279Z,2.63
2022-09-18T11:52:16.108Z,3.10
2022-09-18T11:54:58.638Z,2.08
2022-09-18T11:57:36.771Z,2.47
2022-09-18T12:00:15.132Z,3.50
2022-09-18T12:02:59.615Z,2.53
2022-09-18T12:05:51.590Z,4.10
2022-09-18T12:08:50.924Z,2.92
2022-09-18T12:11:32.168Z,1.30
2022-09-18T12:14:13.398Z,2.33
2022-09-18T12:16:59.006Z,2.50
2022-09-18T12:19:38.203Z,2.90
2022-09-18T12:22:19.021Z,2.67
2022-09-18T12:24:48.484Z,2.13
2022-09-18T12:27:33.914Z,1.80
2022-09-18T12:30:11.197Z,2.35
2022-09-18T12:33:04.153Z,1.67
2022-09-18T12:36:03.001Z,2.97
2022-09-18T12:38:51.302Z,2.90
2022-09-18T12:41:57.795Z,4.90
2022-09-18T12:44:56.022Z,3.42
2022-09-18T12:47:46.394Z,2.93
2022-09-18T12:50:45.767Z,1.60
2022-09-18T12:53:43.016Z,4.40
2022-09-18T12:56:35.322Z,3.47
2022-09-18T12:59:50.993Z,2.13
2022-09-18T13:02:37.127Z,3.20
2022-09-18T13:05:22.222Z,2.20
2022-09-18T13:07:59.863Z,2.47
2022-09-18T13:10:35.573Z,1.77
2022-09-18T13:13:14.123Z,1.83
2022-09-18T13:15:49.817Z,1.63
2022-09-18T13:18:30.965Z,1.23
2022-09-18T13:21:03.981Z,2.30
2022-09-18T13:23:39.354Z,3.63
2022-09-18T13:26:14.161Z,3.78
2022-09-18T13:28:44.445Z,2.33
2022-09-18T13:31:29.064Z,3.10
2022-09-18T13:34:02.377Z,2.85
2022-09-18T13:36:35.565Z,2.72
2022-09-18T13:39:18.449Z,4.45
2022-09-18T13:41:51.484Z,2.73
2022-09-18T13:44:26.388Z,2.53
2022-09-18T13:47:06.485Z,4.03
2022-09-18T13:49:43.940Z,3.33
2022-09-18T13:52:45.813Z,2.90
2022-09-18T13:55:49.632Z,2.30
2022-09-18T13:58:53.950Z,3.08
2022-09-18T14:02:04.439Z,3.00
2022-09-18T14:05:05.856Z,3.65
2022-09-18T14:08:17.313Z,3.70
2022-09-18T14:11:15.804Z,3.27
2022-09-18T14:13:54.209Z,3.50
2022-09-18T14:16:38.962Z,3.70
2022-09-18T14:19:32.328Z,3.60
2022-09-18T14:22:03.195Z,3.75
2022-09-18T14:25:00.096Z,2.97
2022-09-18T14:27:48.892Z,2.78
2022-09-18T14:30:26.862Z,3.47
2022-09-18T14:33:18.211Z,6.03
2022-09-18T14:35:58.562Z,3.58
2022-09-18T14:38:49.739Z,2.97
2022-09-18T14:41:31.757Z,3.10
2022-09-18T14:44:06.419Z,3.10
2022-09-18T14:46:35.607Z,5.15
2022-09-18T14:49:04.562Z,3.08
2022-09-18T14:51:49.519Z,2.80
2022-09-18T14:54:28.645Z,4.13
2022-09-18T14:57:04.864Z,5.65
2022-09-18T14:59:39.685Z,4.25
2022-09-18T15:02:20.799Z,3.20
2022-09-18T15:04:51.803Z,5.33
2022-09-18T15:07:25.960Z,3.20
2022-09-18T15:10:20.993Z,4.55
2022-09-18T15:12:53.398Z,4.50
2022-09-18T15:15:47.450Z,5.45
2022-09-18T15:18:30.791Z,7.03
2022-09-18T15:21:06.722Z,4.85
2022-09-18T15:23:46.752Z,6.40
2022-09-18T15:26:18.746Z,11.13
2022-09-18T15:28:55.050Z,8.55
2022-09-18T15:31:35.844Z,7.77
2022-09-18T15:34:13.533Z,7.03
2022-09-18T15:36:42.735Z,4.70
2022-09-18T15:39:32.505Z,6.35
2022-09-18T15:42:29.299Z,5.45
2022-09-18T15:45:28.667Z,4.70
2022-09-18T15:48:02.133Z,4.68
2022-09-18T15:50:51.993Z,4.47
2022-09-18T15:53:30.870Z,11.50
2022-09-18T15:56:05.573Z,9.57
2022-09-18T15:58:53.905Z,5.83
2022-09-18T16:01:36.452Z,7.22
2022-09-18T16:04:20.314Z,9.50
2022-09-18T16:06:59.196Z,7.20
2022-09-18T16:09:42.866Z,8.82
2022-09-18T16:12:43.384Z,11.07
2022-09-18T16:15:24.016Z,9.68
2022-09-18T16:18:20.806Z,11.15
2022-09-18T16:21:16.236Z,9.27
2022-09-18T16:23:53.855Z,11.18
2022-09-18T16:26:31.375Z,10.93
2022-09-18T16:29:03.718Z,11.40
2022-09-18T16:31:36.756Z,11.23
2022-09-18T16:34:24.799Z,12.15
2022-09-18T16:36:56.930Z,11.18
2022-09-18T16:39:28.755Z,11.40
2022-09-18T16:42:03.839Z,16.98
2022-09-18T16:44:36.647Z,11.80
2022-09-18T16:47:09.986Z,11.50
2022-09-18T16:49:45.271Z,12.50
2022-09-18T16:52:16.800Z,10.03
2022-09-18T16:54:58.274Z,9.25
2022-09-18T16:57:27.910Z,14.23
2022-09-18T17:00:05.480Z,6.82
2022-09-18T17:02:49.299Z,17.30
2022-09-18T17:05:19.074Z,11.93
2022-09-18T17:07:49.963Z,4.47
2022-09-18T17:10:25.036Z,6.47
2022-09-18T17:12:57.398Z,6.97
2022-09-18T17:15:35.265Z,6.88
2022-09-18T17:18:06.019Z,4.85
2022-09-18T17:20:36.075Z,5.57
2022-09-18T17:23:07.358Z,5.57
2022-09-18T17:25:42.728Z,6.20
2022-09-18T17:28:12.611Z,5.90
2022-09-18T17:30:43.254Z,5.18
2022-09-18T17:33:12.546Z,5.30
2022-09-18T17:35:42.337Z,5.90
2022-09-18T17:38:13.379Z,9.48
2022-09-18T17:40:42.677Z,6.72
2022-09-18T17:43:16.804Z,5.90
2022-09-18T17:45:46.402Z,7.30
2022-09-18T17:48:16.353Z,8.25
2022-09-18T17:50:51.451Z,6.70
2022-09-18T17:53:28.849Z,6.22
2022-09-18T17:56:02.549Z,8.15
2022-09-18T17:58:39.003Z,8.53
2022-09-18T18:01:14.672Z,8.52
2022-09-18T18:03:47.330Z,9.82
2022-09-18T18:06:21.801Z,12.68
2022-09-18T18:08:56.354Z,6.57
2022-09-18T18:11:33.517Z,7.67
2022-09-18T18:14:03.626Z,8.93
2022-09-18T18:16:35.161Z,7.70
2022-09-18T18:19:08.563Z,11.75
2022-09-18T18:21:45.206Z,13.38
2022-09-18T18:24:19.114Z,21.23
2022-09-18T18:26:48.854Z,20.30
2022-09-18T18:29:21.263Z,13.30
2022-09-18T18:31:51.922Z,11.98
2022-09-18T18:34:22.701Z,17.88
2022-09-18T18:36:52.960Z,10.30
2022-09-18T18:39:23.767Z,10.35
2022-09-18T18:41:53.416Z,9.65
2022-09-18T18:44:23.430Z,6.97
2022-09-18T18:46:53.536Z,8.05
2022-09-18T18:49:22.653Z,7.80
2022-09-18T18:51:52.458Z,6.25
2022-09-18T18:54:24.408Z,8.23
2022-09-18T18:56:53.592Z,9.32
2022-09-18T18:59:25.876Z,4.88
2022-09-18T19:01:58.050Z,6.87
2022-09-18T19:04:31.149Z,4.75
2022-09-18T19:07:00.903Z,7.53
2022-09-18T19:09:32.740Z,7.20
2022-09-18T19:12:02.193Z,8.00
2022-09-18T19:14:34.414Z,9.23
2022-09-18T19:17:03.693Z,9.90
2022-09-18T19:19:33.047Z,11.57
2022-09-18T19:22:02.402Z,13.90
2022-09-18T19:24:35.072Z,11.20
2022-09-18T19:27:04.573Z,12.20
2022-09-18T19:29:35.942Z,14.95
2022-09-18T19:32:06.449Z,12.18
2022-09-18T19:34:36.328Z,13.98
2022-09-18T19:37:11.366Z,13.70
2022-09-18T19:39:47.402Z,14.03
2022-09-18T19:42:17.764Z,14.20
2022-09-18T19:44:50.205Z,11.85
2022-09-18T19:47:28.568Z,12.90
2022-09-18T19:49:59.966Z,10.30
2022-09-18T19:52:32.732Z,14.47
2022-09-18T19:55:06.745Z,10.25
2022-09-18T19:57:36.226Z,9.27
2022-09-18T20:00:09.472Z,10.20
2022-09-18T20:02:42.858Z,10.27
2022-09-18T20:05:12.488Z,7.20
2022-09-18T20:07:43.180Z,9.07
2022-09-18T20:10:17.368Z,9.13
2022-09-18T20:12:47.670Z,7.75
2022-09-18T20:15:16.910Z,8.90
2022-09-18T20:17:46.281Z,16.83
2022-09-18T20:20:16.659Z,9.52
2022-09-18T20:22:52.289Z,7.22
2022-09-18T20:25:26.466Z,8.73
2022-09-18T20:27:55.780Z,8.57
2022-09-18T20:30:26.186Z,6.73
2022-09-18T20:32:55.815Z,7.63
2022-09-18T20:35:24.994Z,6.38
2022-09-18T20:37:56.380Z,5.15
2022-09-18T20:40:27.306Z,10.10
2022-09-18T20:42:56.582Z,8.30
2022-09-18T20:45:26.686Z,6.55
2022-09-18T20:47:55.299Z,7.88
2022-09-18T20:50:30.394Z,10.75
2022-09-18T20:53:06.330Z,7.78
2022-09-18T20:55:37.382Z,9.03
2022-09-18T20:58:06.322Z,7.03
2022-09-18T21:00:36.920Z,6.65
2022-09-18T21:03:07.012Z,6.97
2022-09-18T21:05:36.486Z,7.35
2022-09-18T21:08:05.327Z,8.30
2022-09-18T21:10:34.749Z,8.82
2022-09-18T21:13:06.179Z,9.55
2022-09-18T21:15:34.985Z,8.77
2022-09-18T21:18:03.715Z,6.68
2022-09-18T21:20:32.907Z,6.03
2022-09-18T21:23:19.013Z,6.75
2022-09-18T21:25:47.582Z,9.65
2022-09-18T21:28:17.598Z,9.93
2022-09-18T21:30:46.256Z,5.65
2022-09-18T21:33:16.163Z,8.50
2022-09-18T21:35:54.971Z,6.88
2022-09-18T21:38:23.589Z,6.95
2022-09-18T21:40:52.276Z,6.95
2022-09-18T21:43:22.913Z,6.10
2022-09-18T21:45:51.660Z,5.87
2022-09-18T21:48:20.341Z,6.35
2022-09-18T21:50:49.295Z,8.93
2022-09-18T21:53:18.380Z,7.63
2022-09-18T21:55:47.833Z,9.15
2022-09-18T21:58:17.548Z,8.47
2022-09-18T22:00:48.000Z,8.55
2022-09-18T22:03:17.418Z,6.65
2022-09-18T22:05:47.060Z,8.40
2022-09-18T22:08:17.577Z,8.18
2022-09-18T22:10:46.637Z,9.23
2022-09-18T22:13:15.623Z,16.80
2022-09-18T22:15:44.550Z,39.67
2022-09-18T22:18:14.664Z,21.20
2022-09-18T22:20:43.390Z,17.65
2022-09-18T22:23:12.295Z,25.37
2022-09-18T22:25:40.998Z,23.13
2022-09-18T22:28:09.663Z,21.73
2022-09-18T22:30:38.666Z,24.50
2022-09-18T22:33:07.715Z,20.70
2022-09-18T22:35:38.150Z,17.57
2022-09-18T22:38:06.798Z,17.85
2022-09-18T22:40:35.521Z,19.67
2022-09-18T22:43:04.306Z,17.00
2022-09-18T22:45:33.013Z,17.75
2022-09-18T22:48:01.712Z,21.30
2022-09-18T22:50:30.569Z,33.00
2022-09-18T22:53:00.866Z,33.50
2022-09-18T22:55:29.869Z,30.27
2022-09-18T22:57:58.617Z,31.67
2022-09-18T23:00:27.346Z,37.00
2022-09-18T23:02:56.266Z,31.85
2022-09-18T23:05:24.881Z,27.95
2022-09-18T23:07:53.476Z,31.50
2022-09-18T23:10:23.441Z,32.95
2022-09-18T23:12:52.084Z,32.00
2022-09-18T23:15:20.704Z,37.70
2022-09-18T23:17:49.733Z,40.17
2022-09-18T23:20:18.612Z,32.63
2022-09-18T23:22:47.452Z,37.08
2022-09-18T23:25:16.361Z,31.80
2022-09-18T23:27:46.600Z,32.28
2022-09-18T23:30:15.378Z,29.20
2022-09-18T23:32:43.992Z,22.98
2022-09-18T23:35:12.652Z,20.73
2022-09-18T23:37:41.242Z,26.73
2022-09-18T23:40:11.275Z,22.98
2022-09-18T23:42:40.277Z,27.35
2022-09-18T23:45:11.939Z,26.40
2022-09-18T23:47:40.707Z,27.90
2022-09-18T23:50:10.103Z,24.47
2022-09-18T23:52:39.030Z,27.40
2022-09-18T23:55:08.000Z,30.55
2022-09-18T23:57:37.090Z,63.50
